Madison, Georgia
Current Conditions -  °F | °C
As of 4:35 PM on Saturday 22 Nov 2014 (Local Time) from K3J7 Reporting Station
Clear Clear  
Wind Chill: 63°   Ceiling: Unl
Heat Index: 63°   Visibility: 10mi
Dew Point: 32°   Wind: 3mph
Humidity: 32%   Direction: 50°NE
Pressure: 30.28"   Gusts: NA
Location:  33.6°N, 83.47°W
Report Text: K3J7 222135Z AUTO 05003KT 10SM CLR 17/00 A3028 RMK AO2
Loading
Personal Weather Stations






























Interactive Weather Map New forecast layout! Learn more

10-Day Weather Forecast

Advertisements
Track Severe Weather on mobile